Lavaltrie, Canada
Current Conditions -  °F | °C
As of 9:00 PM on Sunday 25 Jan 2015 (Local Time) from CYHU Reporting Station
Clear Clear  
Wind Chill: -9°   Ceiling: Unl
Heat Index:   Visibility: 9mi
Dew Point: -8°   Wind: 13mph
Humidity: 52%   Direction: 290°WNW
Pressure: 30.09"   Gusts: NA
Location:  45.88°N, 73.28°W
Report Text: CYHU 260200Z AUTO 29011KT 9SM CLR M14/M22 A3009 RMK SLP191
Loading
Personal Weather Stations






























Interactive Weather Map New forecast layout! Learn more

10-Day Weather Forecast

Advertisements
Track Severe Weather on mobile